sensor_id;sensor_type;location;lat;lon;timestamp;P1;durP1;ratioP1;P2;durP2;ratioP2
37655;SDS011;23498;50.958;3.124;2023-12-22T00:01:20;13.57;;;3.13;;
37655;SDS011;23498;50.958;3.124;2023-12-22T00:03:49;13.48;;;3.25;;
37655;SDS011;23498;50.958;3.124;2023-12-22T00:06:25;14.10;;;3.15;;
37655;SDS011;23498;50.958;3.124;2023-12-22T00:08:56;19.30;;;4.25;;
37655;SDS011;23498;50.958;3.124;2023-12-22T00:11:22;12.30;;;2.28;;
37655;SDS011;23498;50.958;3.124;2023-12-22T00:13:51;13.65;;;2.85;;
37655;SDS011;23498;50.958;3.124;2023-12-22T00:16:21;18.13;;;3.08;;
37655;SDS011;23498;50.958;3.124;2023-12-22T00:18:50;12.68;;;4.03;;
37655;SDS011;23498;50.958;3.124;2023-12-22T00:21:24;16.50;;;3.28;;
37655;SDS011;23498;50.958;3.124;2023-12-22T00:23:52;18.10;;;3.38;;
37655;SDS011;23498;50.958;3.124;2023-12-22T00:26:18;18.88;;;3.90;;
37655;SDS011;23498;50.958;3.124;2023-12-22T00:28:44;15.88;;;3.67;;
37655;SDS011;23498;50.958;3.124;2023-12-22T00:31:13;19.50;;;3.17;;
37655;SDS011;23498;50.958;3.124;2023-12-22T00:33:39;16.95;;;3.47;;
37655;SDS011;23498;50.958;3.124;2023-12-22T00:36:05;18.02;;;3.78;;
37655;SDS011;23498;50.958;3.124;2023-12-22T00:38:34;17.80;;;3.20;;
37655;SDS011;23498;50.958;3.124;2023-12-22T00:41:20;18.88;;;4.00;;
37655;SDS011;23498;50.958;3.124;2023-12-22T00:43:51;15.07;;;3.90;;
37655;SDS011;23498;50.958;3.124;2023-12-22T00:46:27;23.10;;;4.00;;
37655;SDS011;23498;50.958;3.124;2023-12-22T00:48:53;19.08;;;4.65;;
37655;SDS011;23498;50.958;3.124;2023-12-22T00:51:22;16.75;;;3.35;;
37655;SDS011;23498;50.958;3.124;2023-12-22T00:53:55;18.63;;;3.20;;
37655;SDS011;23498;50.958;3.124;2023-12-22T00:56:21;20.92;;;4.30;;
37655;SDS011;23498;50.958;3.124;2023-12-22T00:58:55;13.32;;;3.35;;
37655;SDS011;23498;50.958;3.124;2023-12-22T01:01:24;14.63;;;3.38;;
37655;SDS011;23498;50.958;3.124;2023-12-22T01:03:50;15.63;;;3.95;;
37655;SDS011;23498;50.958;3.124;2023-12-22T01:06:16;18.40;;;3.20;;
37655;SDS011;23498;50.958;3.124;2023-12-22T01:08:44;15.65;;;3.50;;
37655;SDS011;23498;50.958;3.124;2023-12-22T01:11:15;14.75;;;3.17;;
37655;SDS011;23498;50.958;3.124;2023-12-22T01:13:41;6.10;;;1.70;;
37655;SDS011;23498;50.958;3.124;2023-12-22T01:16:18;5.63;;;1.10;;
37655;SDS011;23498;50.958;3.124;2023-12-22T01:18:49;6.95;;;1.40;;
37655;SDS011;23498;50.958;3.124;2023-12-22T01:21:19;5.63;;;1.10;;
37655;SDS011;23498;50.958;3.124;2023-12-22T01:23:48;7.15;;;1.70;;
37655;SDS011;23498;50.958;3.124;2023-12-22T01:26:14;8.48;;;1.90;;
37655;SDS011;23498;50.958;3.124;2023-12-22T01:28:48;11.00;;;1.63;;
37655;SDS011;23498;50.958;3.124;2023-12-22T01:31:41;14.52;;;2.47;;
37655;SDS011;23498;50.958;3.124;2023-12-22T01:34:17;12.95;;;2.20;;
37655;SDS011;23498;50.958;3.124;2023-12-22T01:36:48;13.77;;;2.30;;
37655;SDS011;23498;50.958;3.124;2023-12-22T01:39:17;20.90;;;2.50;;
37655;SDS011;23498;50.958;3.124;2023-12-22T01:41:45;17.73;;;2.90;;
37655;SDS011;23498;50.958;3.124;2023-12-22T01:47:07;21.83;;;3.97;;
37655;SDS011;23498;50.958;3.124;2023-12-22T01:49:36;14.45;;;3.83;;
37655;SDS011;23498;50.958;3.124;2023-12-22T01:52:09;18.27;;;3.13;;
37655;SDS011;23498;50.958;3.124;2023-12-22T01:54:46;16.02;;;4.15;;
37655;SDS011;23498;50.958;3.124;2023-12-22T01:57:18;17.83;;;3.75;;
37655;SDS011;23498;50.958;3.124;2023-12-22T01:59:50;17.85;;;3.95;;
37655;SDS011;23498;50.958;3.124;2023-12-22T02:02:23;20.88;;;3.17;;
37655;SDS011;23498;50.958;3.124;2023-12-22T02:05:05;14.07;;;2.53;;
37655;SDS011;23498;50.958;3.124;2023-12-22T02:07:40;14.48;;;4.07;;
37655;SDS011;23498;50.958;3.124;2023-12-22T02:10:22;16.73;;;3.65;;
37655;SDS011;23498;50.958;3.124;2023-12-22T02:15:44;16.38;;;3.47;;
37655;SDS011;23498;50.958;3.124;2023-12-22T02:18:16;17.75;;;3.45;;
37655;SDS011;23498;50.958;3.124;2023-12-22T02:20:47;13.38;;;2.78;;
37655;SDS011;23498;50.958;3.124;2023-12-22T02:23:19;22.73;;;3.75;;
37655;SDS011;23498;50.958;3.124;2023-12-22T02:25:57;18.98;;;3.45;;
37655;SDS011;23498;50.958;3.124;2023-12-22T02:28:26;22.42;;;3.63;;
37655;SDS011;23498;50.958;3.124;2023-12-22T02:31:04;17.77;;;3.63;;
37655;SDS011;23498;50.958;3.124;2023-12-22T02:33:37;20.05;;;3.90;;
37655;SDS011;23498;50.958;3.124;2023-12-22T02:36:32;24.23;;;4.80;;
37655;SDS011;23498;50.958;3.124;2023-12-22T02:39:22;16.58;;;4.18;;
37655;SDS011;23498;50.958;3.124;2023-12-22T02:41:48;25.17;;;3.97;;
37655;SDS011;23498;50.958;3.124;2023-12-22T02:44:27;17.88;;;3.75;;
37655;SDS011;23498;50.958;3.124;2023-12-22T02:47:01;16.52;;;4.00;;
37655;SDS011;23498;50.958;3.124;2023-12-22T02:49:35;16.25;;;3.35;;
37655;SDS011;23498;50.958;3.124;2023-12-22T02:52:09;17.45;;;4.07;;
37655;SDS011;23498;50.958;3.124;2023-12-22T02:54:46;19.20;;;3.55;;
37655;SDS011;23498;50.958;3.124;2023-12-22T02:57:22;20.67;;;3.67;;
37655;SDS011;23498;50.958;3.124;2023-12-22T02:59:51;20.50;;;4.22;;
37655;SDS011;23498;50.958;3.124;2023-12-22T03:02:19;18.55;;;3.15;;
37655;SDS011;23498;50.958;3.124;2023-12-22T03:04:46;22.33;;;4.38;;
37655;SDS011;23498;50.958;3.124;2023-12-22T03:07:21;27.20;;;4.55;;
37655;SDS011;23498;50.958;3.124;2023-12-22T03:09:48;18.05;;;3.58;;
37655;SDS011;23498;50.958;3.124;2023-12-22T03:12:21;17.23;;;3.83;;
37655;SDS011;23498;50.958;3.124;2023-12-22T03:14:54;21.85;;;4.35;;
37655;SDS011;23498;50.958;3.124;2023-12-22T03:17:28;22.35;;;3.70;;
37655;SDS011;23498;50.958;3.124;2023-12-22T03:19:57;15.93;;;3.42;;
37655;SDS011;23498;50.958;3.124;2023-12-22T03:22:31;16.67;;;3.45;;
37655;SDS011;23498;50.958;3.124;2023-12-22T03:25:04;19.35;;;4.20;;
37655;SDS011;23498;50.958;3.124;2023-12-22T03:27:33;21.75;;;3.65;;
37655;SDS011;23498;50.958;3.124;2023-12-22T03:30:09;15.15;;;3.30;;
37655;SDS011;23498;50.958;3.124;2023-12-22T03:32:38;20.90;;;3.47;;
37655;SDS011;23498;50.958;3.124;2023-12-22T03:35:09;17.70;;;3.53;;
37655;SDS011;23498;50.958;3.124;2023-12-22T03:37:55;27.10;;;4.70;;
37655;SDS011;23498;50.958;3.124;2023-12-22T03:40:30;15.10;;;3.58;;
37655;SDS011;23498;50.958;3.124;2023-12-22T03:43:01;21.80;;;4.45;;
37655;SDS011;23498;50.958;3.124;2023-12-22T03:45:30;23.02;;;4.18;;
37655;SDS011;23498;50.958;3.124;2023-12-22T03:48:01;21.75;;;3.70;;
37655;SDS011;23498;50.958;3.124;2023-12-22T03:50:27;19.65;;;3.55;;
37655;SDS011;23498;50.958;3.124;2023-12-22T03:52:53;18.10;;;4.40;;
37655;SDS011;23498;50.958;3.124;2023-12-22T03:55:19;20.80;;;4.35;;
37655;SDS011;23498;50.958;3.124;2023-12-22T03:57:55;14.35;;;3.58;;
37655;SDS011;23498;50.958;3.124;2023-12-22T04:00:28;22.27;;;4.50;;
37655;SDS011;23498;50.958;3.124;2023-12-22T04:02:57;18.38;;;3.47;;
37655;SDS011;23498;50.958;3.124;2023-12-22T04:05:40;18.65;;;3.72;;
37655;SDS011;23498;50.958;3.124;2023-12-22T04:08:14;14.05;;;3.17;;
37655;SDS011;23498;50.958;3.124;2023-12-22T04:11:08;19.58;;;3.58;;
37655;SDS011;23498;50.958;3.124;2023-12-22T04:13:36;15.23;;;3.22;;
37655;SDS011;23498;50.958;3.124;2023-12-22T04:16:02;17.73;;;3.22;;
37655;SDS011;23498;50.958;3.124;2023-12-22T04:18:30;16.50;;;3.97;;
37655;SDS011;23498;50.958;3.124;2023-12-22T04:21:16;15.55;;;2.97;;
37655;SDS011;23498;50.958;3.124;2023-12-22T04:23:52;24.58;;;3.15;;
37655;SDS011;23498;50.958;3.124;2023-12-22T04:26:21;19.25;;;4.05;;
37655;SDS011;23498;50.958;3.124;2023-12-22T04:28:47;18.58;;;3.58;;
37655;SDS011;23498;50.958;3.124;2023-12-22T04:31:16;16.60;;;3.35;;
37655;SDS011;23498;50.958;3.124;2023-12-22T04:33:42;17.90;;;3.05;;
37655;SDS011;23498;50.958;3.124;2023-12-22T04:36:12;21.63;;;3.03;;
37655;SDS011;23498;50.958;3.124;2023-12-22T04:38:38;17.55;;;3.40;;
37655;SDS011;23498;50.958;3.124;2023-12-22T04:41:07;16.25;;;3.25;;
37655;SDS011;23498;50.958;3.124;2023-12-22T04:43:33;19.50;;;3.22;;
37655;SDS011;23498;50.958;3.124;2023-12-22T04:45:59;19.15;;;4.28;;
37655;SDS011;23498;50.958;3.124;2023-12-22T04:48:25;14.80;;;2.92;;
37655;SDS011;23498;50.958;3.124;2023-12-22T04:50:51;18.92;;;3.63;;
37655;SDS011;23498;50.958;3.124;2023-12-22T04:53:17;14.95;;;2.78;;
37655;SDS011;23498;50.958;3.124;2023-12-22T04:55:43;19.00;;;3.83;;
37655;SDS011;23498;50.958;3.124;2023-12-22T04:58:12;13.00;;;2.78;;
37655;SDS011;23498;50.958;3.124;2023-12-22T05:00:40;11.63;;;2.70;;
37655;SDS011;23498;50.958;3.124;2023-12-22T05:03:13;14.82;;;3.20;;
37655;SDS011;23498;50.958;3.124;2023-12-22T05:05:42;10.85;;;2.30;;
37655;SDS011;23498;50.958;3.124;2023-12-22T05:08:08;8.00;;;1.65;;
37655;SDS011;23498;50.958;3.124;2023-12-22T05:10:34;15.57;;;2.40;;
37655;SDS011;23498;50.958;3.124;2023-12-22T05:13:03;9.32;;;2.80;;
37655;SDS011;23498;50.958;3.124;2023-12-22T05:15:31;10.75;;;1.70;;
37655;SDS011;23498;50.958;3.124;2023-12-22T05:17:59;12.85;;;2.40;;
37655;SDS011;23498;50.958;3.124;2023-12-22T05:20:29;12.30;;;2.08;;
37655;SDS011;23498;50.958;3.124;2023-12-22T05:23:02;5.15;;;1.73;;
37655;SDS011;23498;50.958;3.124;2023-12-22T05:25:28;12.48;;;2.33;;
37655;SDS011;23498;50.958;3.124;2023-12-22T05:27:55;11.05;;;2.00;;
37655;SDS011;23498;50.958;3.124;2023-12-22T05:30:21;9.50;;;2.55;;
37655;SDS011;23498;50.958;3.124;2023-12-22T05:32:49;12.10;;;2.00;;
37655;SDS011;23498;50.958;3.124;2023-12-22T05:35:21;13.63;;;2.72;;
37655;SDS011;23498;50.958;3.124;2023-12-22T05:37:48;6.45;;;1.42;;
37655;SDS011;23498;50.958;3.124;2023-12-22T05:40:14;9.65;;;1.83;;
37655;SDS011;23498;50.958;3.124;2023-12-22T05:42:40;8.35;;;1.65;;
37655;SDS011;23498;50.958;3.124;2023-12-22T05:45:07;10.10;;;1.55;;
37655;SDS011;23498;50.958;3.124;2023-12-22T05:47:34;7.50;;;1.45;;
37655;SDS011;23498;50.958;3.124;2023-12-22T05:50:00;11.60;;;2.55;;
37655;SDS011;23498;50.958;3.124;2023-12-22T05:52:26;12.57;;;2.50;;
37655;SDS011;23498;50.958;3.124;2023-12-22T05:54:55;7.80;;;1.83;;
37655;SDS011;23498;50.958;3.124;2023-12-22T05:57:21;9.10;;;1.90;;
37655;SDS011;23498;50.958;3.124;2023-12-22T05:59:47;7.88;;;1.98;;
37655;SDS011;23498;50.958;3.124;2023-12-22T06:02:16;4.45;;;1.30;;
37655;SDS011;23498;50.958;3.124;2023-12-22T06:04:42;8.43;;;1.88;;
37655;SDS011;23498;50.958;3.124;2023-12-22T06:07:09;9.50;;;1.60;;
37655;SDS011;23498;50.958;3.124;2023-12-22T06:12:06;5.75;;;1.13;;
37655;SDS011;23498;50.958;3.124;2023-12-22T06:14:33;13.75;;;1.75;;
37655;SDS011;23498;50.958;3.124;2023-12-22T06:17:03;8.52;;;1.50;;
37655;SDS011;23498;50.958;3.124;2023-12-22T06:19:31;6.82;;;1.50;;
37655;SDS011;23498;50.958;3.124;2023-12-22T06:22:00;4.95;;;1.33;;
37655;SDS011;23498;50.958;3.124;2023-12-22T06:24:36;5.03;;;1.17;;
37655;SDS011;23498;50.958;3.124;2023-12-22T06:27:02;6.25;;;1.23;;
37655;SDS011;23498;50.958;3.124;2023-12-22T06:29:36;3.63;;;1.20;;
37655;SDS011;23498;50.958;3.124;2023-12-22T06:32:07;4.68;;;1.67;;
37655;SDS011;23498;50.958;3.124;2023-12-22T06:34:55;5.32;;;1.55;;
37655;SDS011;23498;50.958;3.124;2023-12-22T06:37:24;6.43;;;1.75;;
37655;SDS011;23498;50.958;3.124;2023-12-22T06:39:55;4.15;;;1.02;;
37655;SDS011;23498;50.958;3.124;2023-12-22T06:42:31;4.80;;;1.23;;
37655;SDS011;23498;50.958;3.124;2023-12-22T06:45:07;5.38;;;1.48;;
37655;SDS011;23498;50.958;3.124;2023-12-22T06:47:38;5.78;;;1.13;;
37655;SDS011;23498;50.958;3.124;2023-12-22T06:50:06;6.47;;;1.83;;
37655;SDS011;23498;50.958;3.124;2023-12-22T06:52:38;6.60;;;1.90;;
37655;SDS011;23498;50.958;3.124;2023-12-22T06:55:16;6.53;;;2.10;;
37655;SDS011;23498;50.958;3.124;2023-12-22T06:57:45;5.47;;;2.20;;
37655;SDS011;23498;50.958;3.124;2023-12-22T07:00:13;8.63;;;2.72;;
37655;SDS011;23498;50.958;3.124;2023-12-22T07:02:40;6.15;;;2.75;;
37655;SDS011;23498;50.958;3.124;2023-12-22T07:10:08;5.10;;;2.08;;
37655;SDS011;23498;50.958;3.124;2023-12-22T07:12:37;12.07;;;3.00;;
37655;SDS011;23498;50.958;3.124;2023-12-22T07:15:04;9.55;;;2.90;;
37655;SDS011;23498;50.958;3.124;2023-12-22T07:17:33;7.53;;;2.67;;
37655;SDS011;23498;50.958;3.124;2023-12-22T07:19:59;7.93;;;2.47;;
37655;SDS011;23498;50.958;3.124;2023-12-22T07:22:28;9.27;;;2.60;;
37655;SDS011;23498;50.958;3.124;2023-12-22T07:24:54;9.10;;;2.13;;
37655;SDS011;23498;50.958;3.124;2023-12-22T07:27:20;8.80;;;2.20;;
37655;SDS011;23498;50.958;3.124;2023-12-22T07:29:47;10.75;;;2.50;;
37655;SDS011;23498;50.958;3.124;2023-12-22T07:32:13;8.73;;;2.50;;
37655;SDS011;23498;50.958;3.124;2023-12-22T07:34:46;8.73;;;2.25;;
37655;SDS011;23498;50.958;3.124;2023-12-22T07:37:12;5.95;;;2.00;;
37655;SDS011;23498;50.958;3.124;2023-12-22T07:39:40;8.82;;;1.80;;
37655;SDS011;23498;50.958;3.124;2023-12-22T07:42:12;7.18;;;2.47;;
37655;SDS011;23498;50.958;3.124;2023-12-22T07:44:38;10.50;;;2.85;;
37655;SDS011;23498;50.958;3.124;2023-12-22T07:47:04;6.95;;;1.98;;
37655;SDS011;23498;50.958;3.124;2023-12-22T07:49:32;7.43;;;1.63;;
37655;SDS011;23498;50.958;3.124;2023-12-22T07:52:00;10.35;;;2.65;;
37655;SDS011;23498;50.958;3.124;2023-12-22T07:54:36;9.93;;;1.65;;
37655;SDS011;23498;50.958;3.124;2023-12-22T07:57:02;8.15;;;2.10;;
37655;SDS011;23498;50.958;3.124;2023-12-22T07:59:28;9.65;;;2.40;;
37655;SDS011;23498;50.958;3.124;2023-12-22T08:01:54;8.70;;;2.72;;
37655;SDS011;23498;50.958;3.124;2023-12-22T08:04:20;6.68;;;1.58;;
37655;SDS011;23498;50.958;3.124;2023-12-22T08:06:47;8.00;;;2.13;;
37655;SDS011;23498;50.958;3.124;2023-12-22T08:09:13;9.80;;;1.60;;
37655;SDS011;23498;50.958;3.124;2023-12-22T08:11:39;7.50;;;1.75;;
37655;SDS011;23498;50.958;3.124;2023-12-22T08:14:12;7.10;;;1.38;;
37655;SDS011;23498;50.958;3.124;2023-12-22T08:16:38;5.70;;;1.60;;
37655;SDS011;23498;50.958;3.124;2023-12-22T08:19:04;7.80;;;1.50;;
37655;SDS011;23498;50.958;3.124;2023-12-22T08:21:31;2.63;;;1.10;;
37655;SDS011;23498;50.958;3.124;2023-12-22T08:23:57;6.03;;;1.40;;
37655;SDS011;23498;50.958;3.124;2023-12-22T08:26:25;3.50;;;1.35;;
37655;SDS011;23498;50.958;3.124;2023-12-22T08:28:54;8.35;;;1.48;;
37655;SDS011;23498;50.958;3.124;2023-12-22T08:31:23;4.75;;;1.33;;
37655;SDS011;23498;50.958;3.124;2023-12-22T08:33:51;5.03;;;0.98;;
37655;SDS011;23498;50.958;3.124;2023-12-22T08:36:24;5.45;;;1.55;;
37655;SDS011;23498;50.958;3.124;2023-12-22T08:38:53;5.82;;;1.60;;
37655;SDS011;23498;50.958;3.124;2023-12-22T08:41:19;8.75;;;1.88;;
37655;SDS011;23498;50.958;3.124;2023-12-22T08:43:54;7.55;;;1.67;;
37655;SDS011;23498;50.958;3.124;2023-12-22T08:46:31;5.78;;;1.25;;
37655;SDS011;23498;50.958;3.124;2023-12-22T08:48:57;5.47;;;1.35;;
37655;SDS011;23498;50.958;3.124;2023-12-22T08:51:25;3.30;;;1.00;;
37655;SDS011;23498;50.958;3.124;2023-12-22T08:56:43;4.22;;;1.20;;
37655;SDS011;23498;50.958;3.124;2023-12-22T08:59:21;3.95;;;1.38;;
37655;SDS011;23498;50.958;3.124;2023-12-22T09:01:52;4.32;;;1.17;;
37655;SDS011;23498;50.958;3.124;2023-12-22T09:04:21;7.85;;;1.30;;
37655;SDS011;23498;50.958;3.124;2023-12-22T09:06:53;3.83;;;1.13;;
37655;SDS011;23498;50.958;3.124;2023-12-22T09:09:28;4.63;;;1.48;;
37655;SDS011;23498;50.958;3.124;2023-12-22T09:11:57;4.65;;;1.20;;
37655;SDS011;23498;50.958;3.124;2023-12-22T09:14:26;5.22;;;1.35;;
37655;SDS011;23498;50.958;3.124;2023-12-22T09:16:52;8.68;;;1.40;;
37655;SDS011;23498;50.958;3.124;2023-12-22T09:19:20;3.30;;;1.20;;
37655;SDS011;23498;50.958;3.124;2023-12-22T09:21:52;4.32;;;0.82;;
37655;SDS011;23498;50.958;3.124;2023-12-22T09:24:23;4.47;;;1.00;;
37655;SDS011;23498;50.958;3.124;2023-12-22T09:26:51;5.13;;;1.38;;
37655;SDS011;23498;50.958;3.124;2023-12-22T09:29:17;4.82;;;1.15;;
37655;SDS011;23498;50.958;3.124;2023-12-22T09:31:46;4.68;;;1.13;;
37655;SDS011;23498;50.958;3.124;2023-12-22T09:34:12;3.95;;;1.38;;
37655;SDS011;23498;50.958;3.124;2023-12-22T09:36:53;6.97;;;1.38;;
37655;SDS011;23498;50.958;3.124;2023-12-22T09:39:26;4.65;;;0.90;;
37655;SDS011;23498;50.958;3.124;2023-12-22T09:41:54;5.35;;;1.10;;
37655;SDS011;23498;50.958;3.124;2023-12-22T09:44:20;2.08;;;0.80;;
37655;SDS011;23498;50.958;3.124;2023-12-22T09:46:50;4.93;;;1.73;;
37655;SDS011;23498;50.958;3.124;2023-12-22T09:49:38;4.30;;;1.00;;
37655;SDS011;23498;50.958;3.124;2023-12-22T09:52:12;5.47;;;1.27;;
37655;SDS011;23498;50.958;3.124;2023-12-22T09:54:39;2.78;;;0.88;;
37655;SDS011;23498;50.958;3.124;2023-12-22T09:57:05;3.70;;;1.42;;
37655;SDS011;23498;50.958;3.124;2023-12-22T09:59:32;3.50;;;0.80;;
37655;SDS011;23498;50.958;3.124;2023-12-22T10:02:02;3.03;;;0.68;;
37655;SDS011;23498;50.958;3.124;2023-12-22T10:04:32;6.30;;;1.30;;
37655;SDS011;23498;50.958;3.124;2023-12-22T10:07:01;3.78;;;0.90;;
37655;SDS011;23498;50.958;3.124;2023-12-22T10:09:36;1.90;;;1.00;;
37655;SDS011;23498;50.958;3.124;2023-12-22T10:12:02;2.58;;;0.90;;
37655;SDS011;23498;50.958;3.124;2023-12-22T10:14:29;5.35;;;1.02;;
37655;SDS011;23498;50.958;3.124;2023-12-22T10:16:55;5.30;;;1.10;;
37655;SDS011;23498;50.958;3.124;2023-12-22T10:19:21;3.47;;;1.20;;
37655;SDS011;23498;50.958;3.124;2023-12-22T10:21:48;2.40;;;0.80;;
37655;SDS011;23498;50.958;3.124;2023-12-22T10:27:04;3.72;;;0.70;;
37655;SDS011;23498;50.958;3.124;2023-12-22T10:29:53;2.58;;;0.70;;
37655;SDS011;23498;50.958;3.124;2023-12-22T10:32:25;2.88;;;0.50;;
37655;SDS011;23498;50.958;3.124;2023-12-22T10:37:22;3.05;;;0.77;;
37655;SDS011;23498;50.958;3.124;2023-12-22T10:39:59;4.18;;;0.85;;
37655;SDS011;23498;50.958;3.124;2023-12-22T10:42:25;2.10;;;0.68;;
37655;SDS011;23498;50.958;3.124;2023-12-22T10:44:57;4.82;;;1.00;;
37655;SDS011;23498;50.958;3.124;2023-12-22T10:47:37;4.97;;;1.00;;
37655;SDS011;23498;50.958;3.124;2023-12-22T10:50:06;2.60;;;0.90;;
37655;SDS011;23498;50.958;3.124;2023-12-22T10:52:33;3.60;;;1.17;;
37655;SDS011;23498;50.958;3.124;2023-12-22T10:55:07;1.95;;;0.60;;
37655;SDS011;23498;50.958;3.124;2023-12-22T10:57:48;3.90;;;0.88;;
37655;SDS011;23498;50.958;3.124;2023-12-22T11:00:16;8.07;;;1.10;;
37655;SDS011;23498;50.958;3.124;2023-12-22T11:02:42;4.50;;;0.95;;
37655;SDS011;23498;50.958;3.124;2023-12-22T11:05:10;2.97;;;0.85;;
37655;SDS011;23498;50.958;3.124;2023-12-22T11:07:37;2.13;;;0.70;;
37655;SDS011;23498;50.958;3.124;2023-12-22T11:10:07;3.13;;;0.80;;
37655;SDS011;23498;50.958;3.124;2023-12-22T11:12:36;3.22;;;0.85;;
37655;SDS011;23498;50.958;3.124;2023-12-22T11:15:03;2.58;;;0.60;;
37655;SDS011;23498;50.958;3.124;2023-12-22T11:17:36;2.85;;;0.85;;
37655;SDS011;23498;50.958;3.124;2023-12-22T11:20:09;2.88;;;0.50;;
37655;SDS011;23498;50.958;3.124;2023-12-22T11:22:38;5.93;;;1.00;;
37655;SDS011;23498;50.958;3.124;2023-12-22T11:25:04;4.53;;;1.00;;
37655;SDS011;23498;50.958;3.124;2023-12-22T11:27:31;2.47;;;0.50;;
37655;SDS011;23498;50.958;3.124;2023-12-22T11:29:59;3.65;;;0.80;;
37655;SDS011;23498;50.958;3.124;2023-12-22T11:32:26;3.53;;;0.73;;
37655;SDS011;23498;50.958;3.124;2023-12-22T11:34:53;4.93;;;0.77;;
37655;SDS011;23498;50.958;3.124;2023-12-22T11:37:29;4.50;;;0.98;;
37655;SDS011;23498;50.958;3.124;2023-12-22T11:39:57;3.75;;;0.63;;
37655;SDS011;23498;50.958;3.124;2023-12-22T11:42:29;2.72;;;0.57;;
37655;SDS011;23498;50.958;3.124;2023-12-22T11:44:57;4.22;;;0.77;;
37655;SDS011;23498;50.958;3.124;2023-12-22T11:47:29;2.03;;;0.50;;
37655;SDS011;23498;50.958;3.124;2023-12-22T11:50:00;1.83;;;0.52;;
37655;SDS011;23498;50.958;3.124;2023-12-22T11:52:33;1.67;;;0.47;;
37655;SDS011;23498;50.958;3.124;2023-12-22T11:55:09;3.20;;;0.90;;
37655;SDS011;23498;50.958;3.124;2023-12-22T11:57:42;4.85;;;0.85;;
37655;SDS011;23498;50.958;3.124;2023-12-22T12:02:53;5.25;;;0.80;;
37655;SDS011;23498;50.958;3.124;2023-12-22T12:05:20;0.82;;;0.45;;
37655;SDS011;23498;50.958;3.124;2023-12-22T12:07:48;5.22;;;0.60;;
37655;SDS011;23498;50.958;3.124;2023-12-22T12:13:09;2.90;;;0.50;;
37655;SDS011;23498;50.958;3.124;2023-12-22T12:15:38;4.70;;;0.90;;
37655;SDS011;23498;50.958;3.124;2023-12-22T12:18:04;3.58;;;1.00;;
37655;SDS011;23498;50.958;3.124;2023-12-22T12:20:31;5.07;;;1.10;;
37655;SDS011;23498;50.958;3.124;2023-12-22T12:23:03;4.18;;;1.20;;
37655;SDS011;23498;50.958;3.124;2023-12-22T12:25:30;3.47;;;1.40;;
37655;SDS011;23498;50.958;3.124;2023-12-22T12:28:05;4.72;;;1.20;;
37655;SDS011;23498;50.958;3.124;2023-12-22T12:30:35;2.60;;;0.93;;
37655;SDS011;23498;50.958;3.124;2023-12-22T12:35:38;2.97;;;1.00;;
37655;SDS011;23498;50.958;3.124;2023-12-22T12:38:04;3.90;;;1.02;;
37655;SDS011;23498;50.958;3.124;2023-12-22T12:40:31;5.35;;;0.98;;
37655;SDS011;23498;50.958;3.124;2023-12-22T12:43:07;2.83;;;0.75;;
37655;SDS011;23498;50.958;3.124;2023-12-22T12:45:38;3.17;;;0.90;;
37655;SDS011;23498;50.958;3.124;2023-12-22T12:48:14;2.20;;;0.73;;
37655;SDS011;23498;50.958;3.124;2023-12-22T12:50:47;3.88;;;0.70;;
37655;SDS011;23498;50.958;3.124;2023-12-22T12:53:15;3.35;;;0.60;;
37655;SDS011;23498;50.958;3.124;2023-12-22T12:55:42;3.78;;;1.05;;
37655;SDS011;23498;50.958;3.124;2023-12-22T12:58:08;3.30;;;0.90;;
37655;SDS011;23498;50.958;3.124;2023-12-22T13:00:37;2.05;;;0.57;;
37655;SDS011;23498;50.958;3.124;2023-12-22T13:03:13;3.55;;;0.80;;
37655;SDS011;23498;50.958;3.124;2023-12-22T13:05:39;4.15;;;0.80;;
37655;SDS011;23498;50.958;3.124;2023-12-22T13:08:09;4.20;;;0.90;;
37655;SDS011;23498;50.958;3.124;2023-12-22T13:10:38;1.17;;;0.50;;
37655;SDS011;23498;50.958;3.124;2023-12-22T13:13:06;3.40;;;0.80;;
37655;SDS011;23498;50.958;3.124;2023-12-22T13:15:33;4.32;;;0.80;;
37655;SDS011;23498;50.958;3.124;2023-12-22T13:18:01;3.55;;;1.15;;
37655;SDS011;23498;50.958;3.124;2023-12-22T13:20:28;5.63;;;1.38;;
37655;SDS011;23498;50.958;3.124;2023-12-22T13:25:26;3.88;;;0.95;;
37655;SDS011;23498;50.958;3.124;2023-12-22T13:27:52;2.38;;;0.85;;
37655;SDS011;23498;50.958;3.124;2023-12-22T13:30:37;1.77;;;0.80;;
37655;SDS011;23498;50.958;3.124;2023-12-22T13:33:05;3.78;;;0.93;;
37655;SDS011;23498;50.958;3.124;2023-12-22T13:35:32;6.22;;;0.90;;
37655;SDS011;23498;50.958;3.124;2023-12-22T13:38:00;4.13;;;0.80;;
37655;SDS011;23498;50.958;3.124;2023-12-22T13:40:29;4.30;;;1.00;;
37655;SDS011;23498;50.958;3.124;2023-12-22T13:43:00;10.57;;;2.15;;
37655;SDS011;23498;50.958;3.124;2023-12-22T13:45:31;3.58;;;0.93;;
37655;SDS011;23498;50.958;3.124;2023-12-22T13:48:00;4.17;;;1.40;;
37655;SDS011;23498;50.958;3.124;2023-12-22T13:50:26;4.65;;;1.60;;
37655;SDS011;23498;50.958;3.124;2023-12-22T13:52:52;5.20;;;1.08;;
37655;SDS011;23498;50.958;3.124;2023-12-22T13:55:19;7.45;;;1.25;;
37655;SDS011;23498;50.958;3.124;2023-12-22T13:57:47;3.70;;;1.10;;
37655;SDS011;23498;50.958;3.124;2023-12-22T14:02:49;3.75;;;1.00;;
37655;SDS011;23498;50.958;3.124;2023-12-22T14:05:18;6.47;;;1.40;;
37655;SDS011;23498;50.958;3.124;2023-12-22T14:07:56;2.83;;;0.90;;
37655;SDS011;23498;50.958;3.124;2023-12-22T14:10:24;5.75;;;1.45;;
37655;SDS011;23498;50.958;3.124;2023-12-22T14:12:52;7.32;;;1.77;;
37655;SDS011;23498;50.958;3.124;2023-12-22T14:15:24;4.70;;;1.35;;
37655;SDS011;23498;50.958;3.124;2023-12-22T14:17:53;4.53;;;1.30;;
37655;SDS011;23498;50.958;3.124;2023-12-22T14:20:20;7.18;;;1.40;;
37655;SDS011;23498;50.958;3.124;2023-12-22T14:22:49;5.28;;;1.20;;
37655;SDS011;23498;50.958;3.124;2023-12-22T14:25:20;5.88;;;1.27;;
37655;SDS011;23498;50.958;3.124;2023-12-22T14:27:50;8.15;;;1.63;;
37655;SDS011;23498;50.958;3.124;2023-12-22T14:30:21;4.43;;;1.25;;
37655;SDS011;23498;50.958;3.124;2023-12-22T14:32:57;4.93;;;1.40;;
37655;SDS011;23498;50.958;3.124;2023-12-22T14:35:23;7.57;;;2.67;;
37655;SDS011;23498;50.958;3.124;2023-12-22T14:37:49;6.72;;;2.35;;
37655;SDS011;23498;50.958;3.124;2023-12-22T14:40:22;8.65;;;1.40;;
37655;SDS011;23498;50.958;3.124;2023-12-22T14:42:52;5.53;;;1.10;;
37655;SDS011;23498;50.958;3.124;2023-12-22T14:45:20;5.30;;;1.17;;
37655;SDS011;23498;50.958;3.124;2023-12-22T14:47:48;4.95;;;0.90;;
37655;SDS011;23498;50.958;3.124;2023-12-22T14:50:14;4.13;;;1.80;;
37655;SDS011;23498;50.958;3.124;2023-12-22T14:52:42;5.78;;;1.33;;
37655;SDS011;23498;50.958;3.124;2023-12-22T14:55:15;5.55;;;1.50;;
37655;SDS011;23498;50.958;3.124;2023-12-22T14:57:42;4.30;;;1.30;;
37655;SDS011;23498;50.958;3.124;2023-12-22T15:00:08;7.00;;;1.45;;
37655;SDS011;23498;50.958;3.124;2023-12-22T15:02:40;5.43;;;1.35;;
37655;SDS011;23498;50.958;3.124;2023-12-22T15:05:06;2.22;;;0.80;;
37655;SDS011;23498;50.958;3.124;2023-12-22T15:07:34;3.60;;;1.00;;
37655;SDS011;23498;50.958;3.124;2023-12-22T15:10:03;5.80;;;1.10;;
37655;SDS011;23498;50.958;3.124;2023-12-22T15:12:36;5.80;;;1.00;;
37655;SDS011;23498;50.958;3.124;2023-12-22T15:15:14;7.05;;;1.60;;
37655;SDS011;23498;50.958;3.124;2023-12-22T15:17:40;5.22;;;1.50;;
37655;SDS011;23498;50.958;3.124;2023-12-22T15:20:06;5.82;;;1.63;;
37655;SDS011;23498;50.958;3.124;2023-12-22T15:22:33;7.28;;;1.92;;
37655;SDS011;23498;50.958;3.124;2023-12-22T15:25:02;6.35;;;1.70;;
37655;SDS011;23498;50.958;3.124;2023-12-22T15:27:28;5.90;;;1.75;;
37655;SDS011;23498;50.958;3.124;2023-12-22T15:29:55;3.50;;;1.40;;
37655;SDS011;23498;50.958;3.124;2023-12-22T15:32:27;6.25;;;1.77;;
37655;SDS011;23498;50.958;3.124;2023-12-22T15:35:16;5.90;;;1.48;;